sensor_id;sensor_type;location;lat;lon;timestamp;pressure;altitude;pressure_sealevel;temperature;humidity
77216;BME280;66210;53.282;9.864;2023-12-28T00:01:49;100025.16;;;6.45;99.25
77216;BME280;66210;53.282;9.864;2023-12-28T00:04:16;100029.66;;;6.51;99.52
77216;BME280;66210;53.282;9.864;2023-12-28T00:06:43;100034.84;;;6.54;99.82
77216;BME280;66210;53.282;9.864;2023-12-28T00:09:10;100041.66;;;6.55;98.89
77216;BME280;66210;53.282;9.864;2023-12-28T00:11:38;100035.88;;;6.58;98.43
77216;BME280;66210;53.282;9.864;2023-12-28T00:14:05;100030.84;;;6.58;97.89
77216;BME280;66210;53.282;9.864;2023-12-28T00:16:32;100030.13;;;6.60;96.90
77216;BME280;66210;53.282;9.864;2023-12-28T00:19:00;100047.25;;;6.66;96.06
77216;BME280;66210;53.282;9.864;2023-12-28T00:21:29;100041.31;;;6.65;97.38
77216;BME280;66210;53.282;9.864;2023-12-28T00:23:55;100048.97;;;6.67;96.62
77216;BME280;66210;53.282;9.864;2023-12-28T00:26:22;100060.16;;;6.72;96.44
77216;BME280;66210;53.282;9.864;2023-12-28T00:28:49;100050.78;;;6.70;96.24
77216;BME280;66210;53.282;9.864;2023-12-28T00:31:15;100051.72;;;6.72;96.70
77216;BME280;66210;53.282;9.864;2023-12-28T00:33:42;100057.34;;;6.66;97.13
77216;BME280;66210;53.282;9.864;2023-12-28T00:36:09;100067.72;;;6.72;97.38
77216;BME280;66210;53.282;9.864;2023-12-28T00:38:36;100054.09;;;6.69;97.45
77216;BME280;66210;53.282;9.864;2023-12-28T00:41:02;100053.47;;;6.73;97.85
77216;BME280;66210;53.282;9.864;2023-12-28T00:43:29;100061.69;;;6.69;98.62
77216;BME280;66210;53.282;9.864;2023-12-28T00:45:56;100058.59;;;6.58;99.00
77216;BME280;66210;53.282;9.864;2023-12-28T00:48:26;100063.66;;;6.58;100.00
77216;BME280;66210;53.282;9.864;2023-12-28T00:50:53;100078.41;;;6.66;99.85
77216;BME280;66210;53.282;9.864;2023-12-28T00:53:21;100075.41;;;6.57;100.00
77216;BME280;66210;53.282;9.864;2023-12-28T00:55:48;100084.06;;;6.62;100.00
77216;BME280;66210;53.282;9.864;2023-12-28T00:58:15;100053.22;;;6.52;100.00
77216;BME280;66210;53.282;9.864;2023-12-28T01:00:42;100073.75;;;6.58;100.00
77216;BME280;66210;53.282;9.864;2023-12-28T01:03:08;100075.69;;;6.63;100.00
77216;BME280;66210;53.282;9.864;2023-12-28T01:05:35;100064.38;;;6.55;100.00
77216;BME280;66210;53.282;9.864;2023-12-28T01:08:02;100076.41;;;6.61;100.00
77216;BME280;66210;53.282;9.864;2023-12-28T01:10:28;100085.09;;;6.66;100.00
77216;BME280;66210;53.282;9.864;2023-12-28T01:12:55;100071.44;;;6.62;100.00
77216;BME280;66210;53.282;9.864;2023-12-28T01:15:22;100066.09;;;6.56;100.00
77216;BME280;66210;53.282;9.864;2023-12-28T01:17:49;100083.44;;;6.66;100.00
77216;BME280;66210;53.282;9.864;2023-12-28T01:20:16;100087.16;;;6.73;100.00
77216;BME280;66210;53.282;9.864;2023-12-28T01:22:43;100090.63;;;6.75;100.00
77216;BME280;66210;53.282;9.864;2023-12-28T01:25:09;100081.38;;;6.76;100.00
77216;BME280;66210;53.282;9.864;2023-12-28T01:27:36;100080.56;;;6.77;100.00
77216;BME280;66210;53.282;9.864;2023-12-28T01:30:03;100084.00;;;6.77;100.00
77216;BME280;66210;53.282;9.864;2023-12-28T01:32:30;100096.84;;;6.82;100.00
77216;BME280;66210;53.282;9.864;2023-12-28T01:34:56;100086.75;;;6.82;100.00
77216;BME280;66210;53.282;9.864;2023-12-28T01:37:23;100099.38;;;6.82;100.00
77216;BME280;66210;53.282;9.864;2023-12-28T01:39:50;100102.84;;;6.84;100.00
77216;BME280;66210;53.282;9.864;2023-12-28T01:42:16;100098.72;;;6.86;100.00
77216;BME280;66210;53.282;9.864;2023-12-28T01:44:43;100105.75;;;6.92;100.00
77216;BME280;66210;53.282;9.864;2023-12-28T01:47:10;100095.41;;;6.87;100.00
77216;BME280;66210;53.282;9.864;2023-12-28T01:49:37;100101.63;;;6.94;100.00
77216;BME280;66210;53.282;9.864;2023-12-28T01:52:04;100107.88;;;7.00;100.00
77216;BME280;66210;53.282;9.864;2023-12-28T01:54:31;100109.75;;;7.04;100.00
77216;BME280;66210;53.282;9.864;2023-12-28T01:56:59;100109.75;;;7.04;100.00
77216;BME280;66210;53.282;9.864;2023-12-28T01:59:26;100121.50;;;7.04;100.00
77216;BME280;66210;53.282;9.864;2023-12-28T02:01:53;100122.63;;;7.09;100.00
77216;BME280;66210;53.282;9.864;2023-12-28T02:04:20;100124.41;;;7.12;100.00
77216;BME280;66210;53.282;9.864;2023-12-28T02:06:56;100125.38;;;7.14;100.00
77216;BME280;66210;53.282;9.864;2023-12-28T02:09:23;100120.88;;;7.08;100.00
77216;BME280;66210;53.282;9.864;2023-12-28T02:11:50;100131.38;;;7.16;100.00
77216;BME280;66210;53.282;9.864;2023-12-28T02:14:18;100131.19;;;7.13;100.00
77216;BME280;66210;53.282;9.864;2023-12-28T02:16:52;100122.75;;;7.12;100.00
77216;BME280;66210;53.282;9.864;2023-12-28T02:21:59;100130.97;;;7.24;100.00
77216;BME280;66210;53.282;9.864;2023-12-28T02:24:27;100150.50;;;7.28;100.00
77216;BME280;66210;53.282;9.864;2023-12-28T02:26:54;100153.97;;;7.31;100.00
77216;BME280;66210;53.282;9.864;2023-12-28T02:29:20;100124.16;;;7.23;100.00
77216;BME280;66210;53.282;9.864;2023-12-28T02:31:59;100142.25;;;7.31;100.00
77216;BME280;66210;53.282;9.864;2023-12-28T02:34:34;100146.63;;;7.35;100.00
77216;BME280;66210;53.282;9.864;2023-12-28T02:37:04;100127.72;;;7.27;100.00
77216;BME280;66210;53.282;9.864;2023-12-28T02:39:32;100124.69;;;7.34;100.00
77216;BME280;66210;53.282;9.864;2023-12-28T02:41:59;100124.78;;;7.36;100.00
77216;BME280;66210;53.282;9.864;2023-12-28T02:44:26;100118.81;;;7.35;100.00
77216;BME280;66210;53.282;9.864;2023-12-28T02:46:52;100109.94;;;7.25;100.00
77216;BME280;66210;53.282;9.864;2023-12-28T02:49:19;100109.94;;;7.25;100.00
77216;BME280;66210;53.282;9.864;2023-12-28T02:51:46;100131.25;;;7.31;100.00
77216;BME280;66210;53.282;9.864;2023-12-28T02:54:13;100141.44;;;7.32;100.00
77216;BME280;66210;53.282;9.864;2023-12-28T02:56:40;100134.66;;;7.31;100.00
77216;BME280;66210;53.282;9.864;2023-12-28T02:59:08;100123.53;;;7.27;100.00
77216;BME280;66210;53.282;9.864;2023-12-28T03:01:34;100119.91;;;7.22;100.00
77216;BME280;66210;53.282;9.864;2023-12-28T03:04:01;100120.69;;;7.21;100.00
77216;BME280;66210;53.282;9.864;2023-12-28T03:06:28;100122.34;;;7.21;100.00
77216;BME280;66210;53.282;9.864;2023-12-28T03:08:56;100116.22;;;7.16;100.00
77216;BME280;66210;53.282;9.864;2023-12-28T03:11:23;100125.72;;;7.21;100.00
77216;BME280;66210;53.282;9.864;2023-12-28T03:13:50;100134.16;;;7.22;100.00
77216;BME280;66210;53.282;9.864;2023-12-28T03:16:16;100128.22;;;7.20;100.00
77216;BME280;66210;53.282;9.864;2023-12-28T03:18:43;100137.50;;;7.21;100.00
77216;BME280;66210;53.282;9.864;2023-12-28T03:21:10;100129.06;;;7.20;100.00
77216;BME280;66210;53.282;9.864;2023-12-28T03:23:37;100130.66;;;7.18;100.00
77216;BME280;66210;53.282;9.864;2023-12-28T03:26:04;100133.19;;;7.18;100.00
77216;BME280;66210;53.282;9.864;2023-12-28T03:28:31;100130.34;;;7.12;100.00
77216;BME280;66210;53.282;9.864;2023-12-28T03:30:58;100109.91;;;7.07;100.00
77216;BME280;66210;53.282;9.864;2023-12-28T03:33:25;100124.50;;;7.13;100.00
77216;BME280;66210;53.282;9.864;2023-12-28T03:35:53;100124.28;;;7.08;100.00
77216;BME280;66210;53.282;9.864;2023-12-28T03:38:20;100127.59;;;7.07;100.00
77216;BME280;66210;53.282;9.864;2023-12-28T03:40:47;100133.59;;;7.10;100.00
77216;BME280;66210;53.282;9.864;2023-12-28T03:43:15;100142.09;;;7.12;100.00
77216;BME280;66210;53.282;9.864;2023-12-28T03:45:42;100138.72;;;7.11;100.00
77216;BME280;66210;53.282;9.864;2023-12-28T03:48:09;100134.22;;;7.05;100.00
77216;BME280;66210;53.282;9.864;2023-12-28T03:50:35;100120.50;;;7.00;100.00
77216;BME280;66210;53.282;9.864;2023-12-28T03:53:02;100130.97;;;7.08;100.00
77216;BME280;66210;53.282;9.864;2023-12-28T03:55:29;100130.81;;;7.05;100.00
77216;BME280;66210;53.282;9.864;2023-12-28T03:57:56;100135.06;;;7.06;100.00
77216;BME280;66210;53.282;9.864;2023-12-28T04:00:23;100123.03;;;7.00;100.00
77216;BME280;66210;53.282;9.864;2023-12-28T04:02:50;100127.44;;;7.04;100.00
77216;BME280;66210;53.282;9.864;2023-12-28T04:05:17;100137.53;;;7.04;100.00
77216;BME280;66210;53.282;9.864;2023-12-28T04:07:44;100137.69;;;7.07;100.00
77216;BME280;66210;53.282;9.864;2023-12-28T04:10:11;100131.91;;;7.10;100.00
77216;BME280;66210;53.282;9.864;2023-12-28T04:12:37;100115.53;;;7.02;100.00
77216;BME280;66210;53.282;9.864;2023-12-28T04:15:04;100116.75;;;7.10;100.00
77216;BME280;66210;53.282;9.864;2023-12-28T04:17:31;100118.56;;;7.13;100.00
77216;BME280;66210;53.282;9.864;2023-12-28T04:19:58;100114.41;;;7.13;100.00
77216;BME280;66210;53.282;9.864;2023-12-28T04:22:24;100114.94;;;7.07;100.00
77216;BME280;66210;53.282;9.864;2023-12-28T04:24:51;100120.88;;;7.08;100.00
77216;BME280;66210;53.282;9.864;2023-12-28T04:27:18;100107.22;;;7.04;100.00
77216;BME280;66210;53.282;9.864;2023-12-28T04:29:44;100122.63;;;7.09;100.00
77216;BME280;66210;53.282;9.864;2023-12-28T04:32:12;100116.75;;;7.10;100.00
77216;BME280;66210;53.282;9.864;2023-12-28T04:34:39;100116.69;;;7.08;100.00
77216;BME280;66210;53.282;9.864;2023-12-28T04:37:05;100093.97;;;6.92;100.00
77216;BME280;66210;53.282;9.864;2023-12-28T04:39:32;100122.38;;;7.04;100.00
77216;BME280;66210;53.282;9.864;2023-12-28T04:41:59;100114.72;;;7.03;100.00
77216;BME280;66210;53.282;9.864;2023-12-28T04:44:25;100118.97;;;7.04;100.00
77216;BME280;66210;53.282;9.864;2023-12-28T04:46:52;100113.28;;;7.08;100.00
77216;BME280;66210;53.282;9.864;2023-12-28T04:49:19;100109.66;;;7.03;100.00
77216;BME280;66210;53.282;9.864;2023-12-28T04:51:46;100107.94;;;7.02;100.00
77216;BME280;66210;53.282;9.864;2023-12-28T04:54:12;100111.16;;;6.99;100.00
77216;BME280;66210;53.282;9.864;2023-12-28T04:56:39;100123.88;;;7.01;100.00
77216;BME280;66210;53.282;9.864;2023-12-28T04:59:06;100118.22;;;6.89;100.00
77216;BME280;66210;53.282;9.864;2023-12-28T05:01:32;100134.06;;;7.02;100.00
77216;BME280;66210;53.282;9.864;2023-12-28T05:03:59;100126.81;;;7.08;100.00
77216;BME280;66210;53.282;9.864;2023-12-28T05:06:28;100110.31;;;6.99;100.00
77216;BME280;66210;53.282;9.864;2023-12-28T05:08:56;100123.38;;;7.08;100.00
77216;BME280;66210;53.282;9.864;2023-12-28T05:11:22;100112.84;;;6.99;100.00
77216;BME280;66210;53.282;9.864;2023-12-28T05:13:49;100130.19;;;7.09;100.00
77216;BME280;66210;53.282;9.864;2023-12-28T05:16:17;100132.94;;;7.14;100.00
77216;BME280;66210;53.282;9.864;2023-12-28T05:18:44;100121.97;;;7.13;100.00
77216;BME280;66210;53.282;9.864;2023-12-28T05:21:12;100114.69;;;7.19;100.00
77216;BME280;66210;53.282;9.864;2023-12-28T05:23:39;100110.34;;;7.17;100.00
77216;BME280;66210;53.282;9.864;2023-12-28T05:26:06;100110.56;;;7.21;100.00
77216;BME280;66210;53.282;9.864;2023-12-28T05:28:33;100122.72;;;7.28;100.00
77216;BME280;66210;53.282;9.864;2023-12-28T05:30:59;100118.97;;;7.20;100.00
77216;BME280;66210;53.282;9.864;2023-12-28T05:33:26;100142.25;;;7.31;100.00
77216;BME280;66210;53.282;9.864;2023-12-28T05:35:53;100144.09;;;7.35;100.00
77216;BME280;66210;53.282;9.864;2023-12-28T05:38:20;100140.00;;;7.37;100.00
77216;BME280;66210;53.282;9.864;2023-12-28T05:40:46;100136.75;;;7.40;100.00
77216;BME280;66210;53.282;9.864;2023-12-28T05:43:13;100142.59;;;7.39;100.00
77216;BME280;66210;53.282;9.864;2023-12-28T05:45:40;100134.16;;;7.38;100.00
77216;BME280;66210;53.282;9.864;2023-12-28T05:48:06;100148.75;;;7.44;100.00
77216;BME280;66210;53.282;9.864;2023-12-28T05:50:34;100139.34;;;7.41;100.00
77216;BME280;66210;53.282;9.864;2023-12-28T05:53:00;100132.56;;;7.40;100.00
77216;BME280;66210;53.282;9.864;2023-12-28T05:55:27;100135.88;;;7.39;100.00
77216;BME280;66210;53.282;9.864;2023-12-28T05:57:54;100131.25;;;7.31;100.00
77216;BME280;66210;53.282;9.864;2023-12-28T06:00:21;100133.00;;;7.32;100.00
77216;BME280;66210;53.282;9.864;2023-12-28T06:02:47;100133.84;;;7.32;100.00
77216;BME280;66210;53.282;9.864;2023-12-28T06:05:17;100120.84;;;7.24;100.00
77216;BME280;66210;53.282;9.864;2023-12-28T06:07:44;100138.56;;;7.42;100.00
77216;BME280;66210;53.282;9.864;2023-12-28T06:10:11;100139.44;;;7.43;100.00
77216;BME280;66210;53.282;9.864;2023-12-28T06:12:38;100147.09;;;7.44;100.00
77216;BME280;66210;53.282;9.864;2023-12-28T06:15:05;100151.34;;;7.45;100.00
77216;BME280;66210;53.282;9.864;2023-12-28T06:17:32;100142.91;;;7.45;100.00
77216;BME280;66210;53.282;9.864;2023-12-28T06:20:01;100149.91;;;7.50;100.00
77216;BME280;66210;53.282;9.864;2023-12-28T06:22:28;100144.94;;;7.52;100.00
77216;BME280;66210;53.282;9.864;2023-12-28T06:24:56;100143.56;;;7.59;100.00
77216;BME280;66210;53.282;9.864;2023-12-28T06:27:23;100138.28;;;7.54;100.00
77216;BME280;66210;53.282;9.864;2023-12-28T06:29:50;100134.22;;;7.58;99.92
77216;BME280;66210;53.282;9.864;2023-12-28T06:32:17;100133.09;;;7.51;100.00
77216;BME280;66210;53.282;9.864;2023-12-28T06:34:44;100125.88;;;7.59;99.96
77216;BME280;66210;53.282;9.864;2023-12-28T06:37:10;100129.34;;;7.61;100.00
77216;BME280;66210;53.282;9.864;2023-12-28T06:39:37;100132.22;;;7.68;100.00
77216;BME280;66210;53.282;9.864;2023-12-28T06:42:05;100140.19;;;7.76;99.51
77216;BME280;66210;53.282;9.864;2023-12-28T06:44:31;100133.69;;;7.81;99.54
77216;BME280;66210;53.282;9.864;2023-12-28T06:46:58;100138.09;;;7.85;99.13
77216;BME280;66210;53.282;9.864;2023-12-28T06:49:25;100136.56;;;7.89;98.95
77216;BME280;66210;53.282;9.864;2023-12-28T06:51:52;100147.69;;;7.93;98.87
77216;BME280;66210;53.282;9.864;2023-12-28T06:54:19;100142.22;;;8.01;98.73
77216;BME280;66210;53.282;9.864;2023-12-28T06:56:45;100142.34;;;8.04;98.59
77216;BME280;66210;53.282;9.864;2023-12-28T06:59:12;100127.09;;;8.03;98.70
77216;BME280;66210;53.282;9.864;2023-12-28T07:01:39;100124.72;;;8.06;97.66
77216;BME280;66210;53.282;9.864;2023-12-28T07:04:06;100135.16;;;8.13;97.33
77216;BME280;66210;53.282;9.864;2023-12-28T07:06:33;100154.94;;;8.21;97.60
77216;BME280;66210;53.282;9.864;2023-12-28T07:08:59;100137.25;;;8.22;96.54
77216;BME280;66210;53.282;9.864;2023-12-28T07:11:26;100135.53;;;8.21;96.96
77216;BME280;66210;53.282;9.864;2023-12-28T07:13:53;100140.00;;;8.27;96.38
77216;BME280;66210;53.282;9.864;2023-12-28T07:16:22;100131.75;;;8.31;95.98
77216;BME280;66210;53.282;9.864;2023-12-28T07:18:49;100132.81;;;8.36;96.06
77216;BME280;66210;53.282;9.864;2023-12-28T07:21:16;100137.00;;;8.36;95.57
77216;BME280;66210;53.282;9.864;2023-12-28T07:23:43;100138.78;;;8.37;95.01
77216;BME280;66210;53.282;9.864;2023-12-28T07:26:15;100145.88;;;8.44;94.70
77216;BME280;66210;53.282;9.864;2023-12-28T07:28:42;100138.81;;;8.38;95.65
77216;BME280;66210;53.282;9.864;2023-12-28T07:31:22;100136.47;;;8.41;96.03
77216;BME280;66210;53.282;9.864;2023-12-28T07:33:49;100143.34;;;8.44;96.05
77216;BME280;66210;53.282;9.864;2023-12-28T07:36:16;100142.31;;;8.40;95.82
77216;BME280;66210;53.282;9.864;2023-12-28T07:38:43;100144.47;;;8.50;93.69
77216;BME280;66210;53.282;9.864;2023-12-28T07:41:10;100130.22;;;8.52;94.30
77216;BME280;66210;53.282;9.864;2023-12-28T07:43:37;100128.63;;;8.55;94.11
77216;BME280;66210;53.282;9.864;2023-12-28T07:46:03;100134.75;;;8.60;94.06
77216;BME280;66210;53.282;9.864;2023-12-28T07:48:30;100136.41;;;8.59;94.15
77216;BME280;66210;53.282;9.864;2023-12-28T07:50:57;100147.28;;;8.57;93.95
77216;BME280;66210;53.282;9.864;2023-12-28T07:53:24;100140.59;;;8.59;93.17
77216;BME280;66210;53.282;9.864;2023-12-28T07:55:51;100150.97;;;8.63;93.76
77216;BME280;66210;53.282;9.864;2023-12-28T07:58:17;100150.06;;;8.63;93.78
77216;BME280;66210;53.282;9.864;2023-12-28T08:00:44;100147.69;;;8.66;93.82
77216;BME280;66210;53.282;9.864;2023-12-28T08:03:11;100157.00;;;8.67;92.79
77216;BME280;66210;53.282;9.864;2023-12-28T08:05:38;100157.22;;;8.71;93.07
77216;BME280;66210;53.282;9.864;2023-12-28T08:08:05;100148.88;;;8.74;92.04
77216;BME280;66210;53.282;9.864;2023-12-28T08:10:33;100150.81;;;8.80;91.94
77216;BME280;66210;53.282;9.864;2023-12-28T08:12:59;100136.56;;;8.82;91.99
77216;BME280;66210;53.282;9.864;2023-12-28T08:15:26;100151.22;;;8.89;91.82
77216;BME280;66210;53.282;9.864;2023-12-28T08:17:52;100151.81;;;8.83;92.33
77216;BME280;66210;53.282;9.864;2023-12-28T08:20:19;100147.00;;;8.89;91.39
77216;BME280;66210;53.282;9.864;2023-12-28T08:22:46;100141.81;;;8.86;91.67
77216;BME280;66210;53.282;9.864;2023-12-28T08:25:18;100143.63;;;8.89;91.86
77216;BME280;66210;53.282;9.864;2023-12-28T08:27:45;100149.63;;;8.91;92.28
77216;BME280;66210;53.282;9.864;2023-12-28T08:30:12;100147.00;;;8.89;91.81
77216;BME280;66210;53.282;9.864;2023-12-28T08:32:38;100132.63;;;8.88;91.79
77216;BME280;66210;53.282;9.864;2023-12-28T08:35:06;100148.13;;;8.96;91.95
77216;BME280;66210;53.282;9.864;2023-12-28T08:37:33;100142.34;;;8.99;91.89
77216;BME280;66210;53.282;9.864;2023-12-28T08:40:00;100121.81;;;8.92;91.03
77216;BME280;66210;53.282;9.864;2023-12-28T08:42:27;100140.88;;;9.04;91.36
77216;BME280;66210;53.282;9.864;2023-12-28T08:44:54;100131.16;;;8.93;91.41
77216;BME280;66210;53.282;9.864;2023-12-28T08:50:08;100153.88;;;9.11;90.75
77216;BME280;66210;53.282;9.864;2023-12-28T08:52:35;100141.19;;;9.11;90.65
77216;BME280;66210;53.282;9.864;2023-12-28T08:55:03;100139.59;;;9.13;91.19
77216;BME280;66210;53.282;9.864;2023-12-28T08:57:31;100130.13;;;9.09;90.64
77216;BME280;66210;53.282;9.864;2023-12-28T09:00:08;100123.81;;;9.00;91.24
77216;BME280;66210;53.282;9.864;2023-12-28T09:02:36;100143.81;;;9.13;91.18
77216;BME280;66210;53.282;9.864;2023-12-28T09:05:02;100151.63;;;9.19;90.43
77216;BME280;66210;53.282;9.864;2023-12-28T09:07:29;100124.28;;;9.10;89.87
77216;BME280;66210;53.282;9.864;2023-12-28T09:09:56;100137.63;;;9.27;88.58
77216;BME280;66210;53.282;9.864;2023-12-28T09:12:23;100142.97;;;9.33;89.47
77216;BME280;66210;53.282;9.864;2023-12-28T09:14:49;100139.22;;;9.25;89.78
77216;BME280;66210;53.282;9.864;2023-12-28T09:17:22;100129.91;;;9.24;89.22
77216;BME280;66210;53.282;9.864;2023-12-28T09:19:49;100149.06;;;9.39;87.86
77216;BME280;66210;53.282;9.864;2023-12-28T09:22:18;100130.94;;;9.29;88.43
77216;BME280;66210;53.282;9.864;2023-12-28T09:24:45;100119.88;;;9.27;88.28
77216;BME280;66210;53.282;9.864;2023-12-28T09:27:11;100146.72;;;9.43;87.79
77216;BME280;66210;53.282;9.864;2023-12-28T09:29:38;100116.19;;;9.40;86.03
77216;BME280;66210;53.282;9.864;2023-12-28T09:32:06;100124.75;;;9.44;86.26
77216;BME280;66210;53.282;9.864;2023-12-28T09:34:33;100100.47;;;9.28;86.65
77216;BME280;66210;53.282;9.864;2023-12-28T09:37:00;100163.19;;;9.53;87.44
77216;BME280;66210;53.282;9.864;2023-12-28T09:39:27;100130.41;;;9.36;86.18
77216;BME280;66210;53.282;9.864;2023-12-28T09:42:00;100140.97;;;9.47;86.24
77216;BME280;66210;53.282;9.864;2023-12-28T09:44:32;100119.03;;;9.27;87.31
77216;BME280;66210;53.282;9.864;2023-12-28T09:47:01;100132.19;;;9.39;86.70
77216;BME280;66210;53.282;9.864;2023-12-28T09:49:30;100163.56;;;9.62;86.68
77216;BME280;66210;53.282;9.864;2023-12-28T09:51:57;100170.28;;;9.62;86.49
77216;BME280;66210;53.282;9.864;2023-12-28T09:54:25;100119.47;;;9.38;86.75
77216;BME280;66210;53.282;9.864;2023-12-28T09:56:52;100111.91;;;9.39;86.51
77216;BME280;66210;53.282;9.864;2023-12-28T09:59:19;100109.94;;;9.32;86.76
77216;BME280;66210;53.282;9.864;2023-12-28T10:01:47;100089.78;;;9.35;85.78
77216;BME280;66210;53.282;9.864;2023-12-28T10:04:15;100069.19;;;9.27;85.84
77216;BME280;66210;53.282;9.864;2023-12-28T10:06:42;100086.81;;;9.45;86.49
77216;BME280;66210;53.282;9.864;2023-12-28T10:09:09;100098.41;;;9.61;84.34
77216;BME280;66210;53.282;9.864;2023-12-28T10:11:36;100062.38;;;9.47;84.35
77216;BME280;66210;53.282;9.864;2023-12-28T10:14:03;100128.72;;;9.79;85.12
77216;BME280;66210;53.282;9.864;2023-12-28T10:16:31;100092.13;;;9.51;84.54
77216;BME280;66210;53.282;9.864;2023-12-28T10:18:57;100101.59;;;9.55;83.86
77216;BME280;66210;53.282;9.864;2023-12-28T10:21:25;100128.88;;;9.84;84.82
77216;BME280;66210;53.282;9.864;2023-12-28T10:23:51;100118.84;;;9.64;83.84
77216;BME280;66210;53.282;9.864;2023-12-28T10:26:18;100137.16;;;9.78;84.87
77216;BME280;66210;53.282;9.864;2023-12-28T10:28:45;100103.38;;;9.58;84.36
77216;BME280;66210;53.282;9.864;2023-12-28T10:31:12;100095.88;;;9.61;84.58
77216;BME280;66210;53.282;9.864;2023-12-28T10:33:39;100138.19;;;9.83;84.15
77216;BME280;66210;53.282;9.864;2023-12-28T10:36:08;100142.56;;;9.87;84.56
77216;BME280;66210;53.282;9.864;2023-12-28T10:38:37;100126.00;;;9.74;84.43
77216;BME280;66210;53.282;9.864;2023-12-28T10:41:07;100089.66;;;9.53;84.23
77216;BME280;66210;53.282;9.864;2023-12-28T10:43:57;100145.03;;;9.86;84.78
77216;BME280;66210;53.282;9.864;2023-12-28T10:46:39;100111.06;;;9.60;84.42
77216;BME280;66210;53.282;9.864;2023-12-28T10:49:11;100135.19;;;9.71;84.95
77216;BME280;66210;53.282;9.864;2023-12-28T10:51:42;100152.59;;;9.84;85.13
77216;BME280;66210;53.282;9.864;2023-12-28T10:54:32;100118.38;;;9.74;85.08
77216;BME280;66210;53.282;9.864;2023-12-28T10:57:23;100146.53;;;9.81;84.66
77216;BME280;66210;53.282;9.864;2023-12-28T11:00:09;100143.25;;;9.83;84.88
77216;BME280;66210;53.282;9.864;2023-12-28T11:02:39;100107.81;;;9.64;84.68
77216;BME280;66210;53.282;9.864;2023-12-28T11:05:08;100125.31;;;9.78;84.37
77216;BME280;66210;53.282;9.864;2023-12-28T11:07:36;100106.88;;;9.62;84.46
77216;BME280;66210;53.282;9.864;2023-12-28T11:10:05;100116.72;;;9.75;84.85
77216;BME280;66210;53.282;9.864;2023-12-28T11:12:33;100098.03;;;9.73;84.15
77216;BME280;66210;53.282;9.864;2023-12-28T11:15:01;100121.16;;;9.81;84.49
77216;BME280;66210;53.282;9.864;2023-12-28T11:17:31;100133.97;;;9.84;84.86
77216;BME280;66210;53.282;9.864;2023-12-28T11:19:58;100124.00;;;9.88;83.24
77216;BME280;66210;53.282;9.864;2023-12-28T11:22:25;100043.41;;;9.38;84.86
77216;BME280;66210;53.282;9.864;2023-12-28T11:24:53;100098.03;;;9.73;84.25
77216;BME280;66210;53.282;9.864;2023-12-28T11:27:21;100122.34;;;9.89;84.13
77216;BME280;66210;53.282;9.864;2023-12-28T11:29:48;100135.41;;;9.99;83.57
77216;BME280;66210;53.282;9.864;2023-12-28T11:32:15;100129.59;;;10.02;84.04
77216;BME280;66210;53.282;9.864;2023-12-28T11:34:41;100132.19;;;10.04;84.64
77216;BME280;66210;53.282;9.864;2023-12-28T11:37:17;100128.06;;;10.06;84.27
77216;BME280;66210;53.282;9.864;2023-12-28T11:39:48;100111.66;;;9.97;83.87
77216;BME280;66210;53.282;9.864;2023-12-28T11:42:19;100126.53;;;10.11;83.96
77216;BME280;66210;53.282;9.864;2023-12-28T11:44:46;100105.38;;;10.10;83.17
77216;BME280;66210;53.282;9.864;2023-12-28T11:47:20;100120.44;;;10.28;82.84
77216;BME280;66210;53.282;9.864;2023-12-28T11:49:48;100089.53;;;10.16;83.12
77216;BME280;66210;53.282;9.864;2023-12-28T11:52:29;100116.31;;;10.30;82.67
77216;BME280;66210;53.282;9.864;2023-12-28T11:54:57;100103.56;;;10.29;82.66
77216;BME280;66210;53.282;9.864;2023-12-28T11:57:26;100128.25;;;10.33;83.30
77216;BME280;66210;53.282;9.864;2023-12-28T11:59:58;100118.06;;;10.31;82.49
77216;BME280;66210;53.282;9.864;2023-12-28T12:02:26;100083.34;;;10.09;82.67
77216;BME280;66210;53.282;9.864;2023-12-28T12:04:53;100124.09;;;10.35;81.45
77216;BME280;66210;53.282;9.864;2023-12-28T12:07:22;100107.47;;;10.20;81.40
77216;BME280;66210;53.282;9.864;2023-12-28T12:09:48;100120.69;;;10.34;81.81
77216;BME280;66210;53.282;9.864;2023-12-28T12:12:15;100130.00;;;10.34;81.68
77216;BME280;66210;53.282;9.864;2023-12-28T12:14:42;100127.47;;;10.34;82.55
77216;BME280;66210;53.282;9.864;2023-12-28T12:17:09;100115.34;;;10.28;82.32
77216;BME280;66210;53.282;9.864;2023-12-28T12:19:37;100091.25;;;10.17;81.56
77216;BME280;66210;53.282;9.864;2023-12-28T12:22:04;100119.88;;;10.35;81.76
77216;BME280;66210;53.282;9.864;2023-12-28T12:24:31;100103.31;;;10.23;82.07
77216;BME280;66210;53.282;9.864;2023-12-28T12:26:59;100103.94;;;10.17;82.33
77216;BME280;66210;53.282;9.864;2023-12-28T12:29:29;100114.63;;;10.31;82.28
77216;BME280;66210;53.282;9.864;2023-12-28T12:31:57;100116.19;;;10.27;81.74
77216;BME280;66210;53.282;9.864;2023-12-28T12:34:24;100105.13;;;10.27;81.63
77216;BME280;66210;53.282;9.864;2023-12-28T12:36:52;100087.91;;;10.18;81.78
77216;BME280;66210;53.282;9.864;2023-12-28T12:39:23;100101.69;;;10.25;82.98
77216;BME280;66210;53.282;9.864;2023-12-28T12:41:51;100077.22;;;10.04;83.43
77216;BME280;66210;53.282;9.864;2023-12-28T12:44:21;100083.00;;;10.00;82.31
77216;BME280;66210;53.282;9.864;2023-12-28T12:46:56;100074.47;;;9.98;81.93
77216;BME280;66210;53.282;9.864;2023-12-28T12:49:23;100065.94;;;9.96;82.63
77216;BME280;66210;53.282;9.864;2023-12-28T12:51:53;100118.22;;;10.13;83.20
77216;BME280;66210;53.282;9.864;2023-12-28T12:54:20;100107.84;;;10.09;83.12
77216;BME280;66210;53.282;9.864;2023-12-28T12:56:47;100125.06;;;10.16;82.83
77216;BME280;66210;53.282;9.864;2023-12-28T12:59:16;100049.81;;;9.73;83.41
77216;BME280;66210;53.282;9.864;2023-12-28T13:01:46;100091.25;;;9.94;83.61
77216;BME280;66210;53.282;9.864;2023-12-28T13:04:16;100113.91;;;10.12;83.30